Station Historical Data
 
Daily Summary for February 19, 2019 Units:  Metric    English   Both
« Previous Day
Next Day »
Daily Weekly Monthly Yearly Custom
  Current: High: Low: Average:
Temperature: -16.1 °C -17.8 °C -16.2 °C -14.7 °C
Dew Point: -16.8 °C -17.8 °C -17 °C -16.1 °C
Humidity: 91 % Humidity % 79 % 83 %
Wind Speed: 6 km/h 0 km/h 0 km/h 7.9 km/h
Wind Gust: 0.5 km/h 0 km/h - -
Wind:SSW - - West
Pressure: 34564.3 hPa 0 hPa 34550.7 hPa -
Precipitation: 0 mm      
Historical Graphs
 
 
Tabular Data for February 19, 2019
Time Temperature Dew Point Pressure Wind Wind Speed Wind Gust Humidity Rainfall Rate (Hourly) solar Conditions
-17.8 °C -17.8 °C 0 hPa Calm     Humidity % 0 mm SolarRadiationWatts/m^2 W/m2 Conditions
00:04 -13.7 °C -15.5 °C 34584.6 hPa NW 6 km/h 3.4 km/h 79 % 0 mm 0.00 W/m2 CLR
00:09 -13.7 °C -15.6 °C 34584.6 hPa NW 9 km/h 5.1 km/h 79 % 0 mm 0.00 W/m2 CLR
00:14 -13.7 °C -15.5 °C 34584.6 hPa NW 10.3 km/h 7.7 km/h 80 % 0 mm 0.00 W/m2 CLR
00:19 -13.7 °C -15.5 °C 34584.6 hPa NW 11.9 km/h 7.2 km/h 80 % 0 mm 0.00 W/m2 CLR
00:24 -13.7 °C -15.5 °C 34584.6 hPa NW 10.3 km/h 6.3 km/h 80 % 0 mm 0.00 W/m2 CLR
00:29 -13.7 °C -15.4 °C 34584.6 hPa NW 10.3 km/h 8.5 km/h 80 % 0 mm 0.00 W/m2 CLR
00:34 -13.7 °C -15.4 °C 34584.6 hPa NW 9 km/h 6 km/h 80 % 0 mm 0.00 W/m2 CLR
00:39 -13.6 °C -15.4 °C 34584.6 hPa WNW 12.9 km/h 8.2 km/h 80 % 0 mm 0.00 W/m2 CLR
00:44 -13.6 °C -15.4 °C 34588 hPa WNW 10.3 km/h 8.5 km/h 80 % 0 mm 0.00 W/m2 CLR
00:48 -13.6 °C -15.4 °C 34584.6 hPa NW 10.3 km/h 7.6 km/h 79 % 0 mm 0.00 W/m2 CLR
00:53 -13.6 °C -15.4 °C 34584.6 hPa NW 12.9 km/h 10.6 km/h 79 % 0 mm 0.00 W/m2 CLR
00:58 -13.6 °C -15.4 °C 34588 hPa NW 15.6 km/h 10.6 km/h 79 % 0 mm 0.00 W/m2 CLR
01:03 -13.6 °C -15.4 °C 34584.6 hPa NW 10.3 km/h 8.5 km/h 79 % 0 mm 0.00 W/m2 CLR
01:08 -13.6 °C -15.4 °C 34584.6 hPa NW 12.9 km/h 9.7 km/h 79 % 0 mm 0.00 W/m2 CLR
01:13 -13.6 °C -15.4 °C 34581.2 hPa NW 11.9 km/h 7.6 km/h 79 % 0 mm 0.00 W/m2 CLR
01:18 -13.6 °C -15.4 °C 34584.6 hPa NW 9 km/h 6 km/h 79 % 0 mm 0.00 W/m2 CLR
01:24 -13.6 °C -15.5 °C 34584.6 hPa NW 12.9 km/h 10.9 km/h 79 % 0 mm 0.00 W/m2 CLR
01:28 -13.6 °C -15.5 °C 34584.6 hPa NW 9 km/h 6.3 km/h 79 % 0 mm 0.00 W/m2 CLR
01:33 -13.6 °C -15.5 °C 34584.6 hPa NW 10.3 km/h 6.9 km/h 79 % 0 mm 0.00 W/m2 CLR
01:39 -13.6 °C -15.5 °C 34584.6 hPa NW 10.3 km/h 6.9 km/h 79 % 0 mm 0.00 W/m2 CLR
01:43 -13.7 °C -15.5 °C 34581.2 hPa NNW 10.3 km/h 8 km/h 79 % 0 mm 0.00 W/m2 CLR
01:48 -13.7 °C -15.6 °C 34577.8 hPa NW 10.3 km/h 7.2 km/h 79 % 0 mm 0.00 W/m2 CLR
01:54 -13.7 °C -15.4 °C 34577.8 hPa NW 10.3 km/h 8.9 km/h 80 % 0 mm 0.00 W/m2 CLR
01:58 -13.7 °C -15.4 °C 34577.8 hPa NW 10.3 km/h 8.2 km/h 80 % 0 mm 0.00 W/m2 CLR
02:03 -13.7 °C -15.4 °C 34577.8 hPa NW 12.9 km/h 7.6 km/h 80 % 0 mm 0.00 W/m2 CLR
02:09 -13.7 °C -15.6 °C 34574.4 hPa NW 9 km/h 6 km/h 79 % 0 mm 0.00 W/m2 CLR
02:13 -13.7 °C -15.5 °C 34574.4 hPa NW 9 km/h 5.1 km/h 80 % 0 mm 0.00 W/m2 CLR
02:18 -13.7 °C -15.5 °C 34571.1 hPa WNW 9 km/h 5.6 km/h 80 % 0 mm 0.00 W/m2 CLR
02:24 -13.7 °C -15.5 °C 34571.1 hPa NW 9 km/h 6 km/h 80 % 0 mm 0.00 W/m2 CLR
02:28 -13.7 °C -15.5 °C 34567.7 hPa NW 6 km/h 5.1 km/h 80 % 0 mm 0.00 W/m2 CLR
02:33 -13.7 °C -15.6 °C 34567.7 hPa NW 6 km/h 4.2 km/h 79 % 0 mm 0.00 W/m2 CLR
02:39 -13.7 °C -15.5 °C 34564.3 hPa NW 9 km/h 5.6 km/h 80 % 0 mm 0.00 W/m2 CLR
02:44 -13.8 °C -15.6 °C 34564.3 hPa NW 9 km/h 6 km/h 80 % 0 mm 0.00 W/m2 CLR
02:49 -13.8 °C -15.6 °C 34567.7 hPa NW 10.3 km/h 6.8 km/h 80 % 0 mm 0.00 W/m2 CLR
02:54 -13.8 °C -15.6 °C 34564.3 hPa NW 9 km/h 5.1 km/h 80 % 0 mm 0.00 W/m2 CLR
02:59 -13.8 °C -15.6 °C 34564.3 hPa WNW 10.3 km/h 6.4 km/h 80 % 0 mm 0.00 W/m2 CLR
03:04 -13.8 °C -15.6 °C 34564.3 hPa NW 6 km/h 4.2 km/h 80 % 0 mm 0.00 W/m2 CLR
03:09 -13.8 °C -15.6 °C 34560.9 hPa NW 9 km/h 4.3 km/h 80 % 0 mm 0.00 W/m2 CLR
03:14 -13.8 °C -15.6 °C 34564.3 hPa NW 6 km/h 2.3 km/h 80 % 0 mm 0.00 W/m2 CLR
03:19 -13.8 °C -15.6 °C 34560.9 hPa Calm     80 % 0 mm 0.00 W/m2 CLR
03:23 -13.8 °C -15.6 °C 34560.9 hPa WNW 9 km/h 3.7 km/h 80 % 0 mm 0.00 W/m2 CLR
03:28 -13.8 °C -15.6 °C 34560.9 hPa WNW 6 km/h 2.3 km/h 80 % 0 mm 0.00 W/m2 CLR
03:33 -13.8 °C -15.7 °C 34557.5 hPa WNW 6 km/h 2.6 km/h 80 % 0 mm 0.00 W/m2 CLR
03:38 -13.8 °C -15.6 °C 34557.5 hPa WNW 6 km/h 2.9 km/h 81 % 0 mm 0.00 W/m2 CLR
03:43 -13.9 °C -15.6 °C 34557.5 hPa WNW 6 km/h 3.1 km/h 81 % 0 mm 0.00 W/m2 CLR
03:49 -13.9 °C -15.6 °C 34554.1 hPa WNW 3.1 km/h 0.5 km/h 81 % 0 mm 0.00 W/m2 CLR
03:53 -14 °C -15.7 °C 34554.1 hPa Calm     81 % 0 mm 0.00 W/m2 CLR
03:58 -14 °C -15.8 °C 34554.1 hPa Calm     80 % 0 mm 0.00 W/m2 CLR
04:04 -14.1 °C -15.9 °C 34554.1 hPa Calm     80 % 0 mm 0.00 W/m2 CLR
04:08 -14.2 °C -15.9 °C 34554.1 hPa Calm     80 % 0 mm 0.00 W/m2 CLR
04:13 -14.3 °C -16.1 °C 34554.1 hPa Calm     80 % 0 mm 0.00 W/m2 CLR
04:19 -14.4 °C -16.2 °C 34554.1 hPa WNW 6 km/h 3.7 km/h 80 % 0 mm 0.00 W/m2 CLR
04:23 -14.6 °C -16.3 °C 34554.1 hPa WNW 6 km/h 5.1 km/h 81 % 0 mm 0.00 W/m2 CLR
04:28 -14.8 °C -16.3 °C 34550.7 hPa West 9 km/h 7.2 km/h 82 % 0 mm 0.00 W/m2 CLR
04:34 -14.9 °C -16.3 °C 34554.1 hPa West 9 km/h 6 km/h 83 % 0 mm 0.00 W/m2 CLR
04:38 -14.9 °C -16.4 °C 34554.1 hPa SW 9 km/h 6.4 km/h 83 % 0 mm 0.00 W/m2 CLR
04:43 -15.1 °C -16.5 °C 34554.1 hPa SW 9 km/h 6.3 km/h 84 % 0 mm 0.00 W/m2 CLR
04:49 -15.2 °C -16.6 °C 34554.1 hPa SW 9 km/h 5 km/h 84 % 0 mm 0.00 W/m2 CLR
04:53 -15.3 °C -16.6 °C 34554.1 hPa SW 9 km/h 6 km/h 85 % 0 mm 0.00 W/m2 CLR
04:58 -15.4 °C -16.6 °C 34554.1 hPa SW 9 km/h 6.9 km/h 85 % 0 mm 0.00 W/m2 CLR
05:04 -15.4 °C -16.6 °C 34554.1 hPa SW 9 km/h 3.7 km/h 86 % 0 mm 0.00 W/m2 CLR
05:08 -15.5 °C -16.7 °C 34554.1 hPa SW 7.7 km/h 5.6 km/h 86 % 0 mm 0.00 W/m2 CLR
05:14 -15.6 °C -16.8 °C 34557.5 hPa SW 10.3 km/h 6.8 km/h 86 % 0 mm 0.00 W/m2 CLR
05:19 -15.7 °C -16.7 °C 34554.1 hPa SW 9 km/h 4.3 km/h 87 % 0 mm 0.00 W/m2 CLR
05:24 -15.7 °C -16.8 °C 34557.5 hPa SW 10.3 km/h 8 km/h 87 % 0 mm 0.00 W/m2 CLR
05:29 -15.7 °C -16.7 °C 34557.5 hPa SW 10.3 km/h 6.9 km/h 88 % 0 mm 0.00 W/m2 CLR
05:34 -15.8 °C -16.8 °C 34557.5 hPa SW 6 km/h 5.1 km/h 88 % 0 mm 0.00 W/m2 CLR
05:39 -15.8 °C -16.8 °C 34557.5 hPa SW 9 km/h 6 km/h 88 % 0 mm 0.00 W/m2 CLR
05:44 -15.8 °C -16.8 °C 34560.9 hPa SW 6 km/h 1.3 km/h 88 % 0 mm 0.00 W/m2 CLR
05:48 -15.9 °C -16.8 °C 34560.9 hPa SW 6 km/h 1.3 km/h 89 % 0 mm 0.00 W/m2 CLR
05:53 -15.9 °C -16.8 °C 34560.9 hPa SW 6 km/h 2.6 km/h 89 % 0 mm 0.00 W/m2 CLR
05:58 -15.9 °C -16.8 °C 34560.9 hPa SW 9 km/h 5.5 km/h 89 % 0 mm 0.00 W/m2 CLR
06:03 -15.9 °C -16.8 °C 34557.5 hPa SW 9 km/h 5 km/h 89 % 0 mm 0.00 W/m2 CLR
06:08 -15.9 °C -16.8 °C 34560.9 hPa SW 7.7 km/h 5 km/h 90 % 0 mm 0.00 W/m2 CLR
06:13 -15.9 °C -16.8 °C 34557.5 hPa SW 6 km/h 3.7 km/h 90 % 0 mm 0.00 W/m2 CLR
06:18 -15.9 °C -16.8 °C 34557.5 hPa SW 6 km/h 4.2 km/h 90 % 0 mm 0.00 W/m2 CLR
06:24 -15.9 °C -16.8 °C 34557.5 hPa SW 6 km/h 2.9 km/h 90 % 0 mm 0.00 W/m2 CLR
06:28 -15.9 °C -16.8 °C 34554.1 hPa SW 6 km/h 3.7 km/h 90 % 0 mm 0.00 W/m2 CLR
06:33 -15.9 °C -16.8 °C 34557.5 hPa SW 6 km/h 3.4 km/h 90 % 0 mm 0.00 W/m2 CLR
06:39 -16 °C -16.8 °C 34554.1 hPa SW 6 km/h 3.4 km/h 90 % 0 mm 0.00 W/m2 CLR
06:43 -16 °C -16.8 °C 34554.1 hPa SW 6 km/h 3.1 km/h 90 % 0 mm 0.00 W/m2 CLR
06:48 -16 °C -16.8 °C 34554.1 hPa SW 5.1 km/h 0.3 km/h 90 % 0 mm 0.00 W/m2 CLR
06:54 -16 °C -16.8 °C 34554.1 hPa SW 6 km/h 2.6 km/h 90 % 0 mm 0.00 W/m2 CLR
06:58 -16.1 °C -16.9 °C 34554.1 hPa SW 9 km/h 5 km/h 90 % 0 mm 0.00 W/m2 CLR
07:03 -16.1 °C -16.8 °C 34557.5 hPa SW 7.7 km/h 5 km/h 91 % 0 mm 0.00 W/m2 CLR
07:09 -16.1 °C -16.8 °C 34557.5 hPa SW 9 km/h 5.6 km/h 91 % 0 mm 0.00 W/m2 CLR
07:14 -16.1 °C -16.8 °C 34557.5 hPa SW 9 km/h 6.9 km/h 91 % 0 mm 0.00 W/m2 CLR
07:18 -16.2 °C -17 °C 34557.5 hPa SW 10.3 km/h 7.7 km/h 90 % 0 mm 5.00 W/m2 CLR
07:24 -16.2 °C -16.9 °C 34560.9 hPa SSW 10.3 km/h 7.2 km/h 91 % 0 mm 7.00 W/m2 CLR
07:29 -16.2 °C -16.9 °C 34564.3 hPa SSW 9 km/h 5 km/h 91 % 0 mm 11.00 W/m2 FEW
07:33 -16.1 °C -16.8 °C 34564.3 hPa SSW 9 km/h 4.3 km/h 91 % 0 mm 14.00 W/m2 SCT
07:39 -16.1 °C -16.8 °C 34567.7 hPa SSW 6 km/h 3.1 km/h 91 % 0 mm 18.00 W/m2 SCT
07:44 -16.1 °C -16.8 °C 34564.3 hPa SSW 6 km/h 2.1 km/h 91 % 0 mm 25.00 W/m2 SCT
07:48 -16.1 °C -16.8 °C 34564.3 hPa SSW 6 km/h 0.5 km/h 91 % 0 mm 30.00 W/m2 SCT
Juneau County Weather
Compliments of Weather Underground - 2.25 mb